createdAt,value
2022-07-30T00:08:26.416Z,100827.04
2022-07-30T00:18:28.280Z,100824.20
2022-07-30T00:28:30.202Z,100816.73
2022-07-30T00:38:32.386Z,100797.70
2022-07-30T00:48:34.305Z,100791.56
2022-07-30T00:58:36.221Z,100778.17
2022-07-30T01:08:38.273Z,100771.10
2022-07-30T01:19:01.111Z,100765.98
2022-07-30T01:29:03.365Z,100751.91
2022-07-30T01:39:05.842Z,100758.56
2022-07-30T01:49:10.664Z,100755.80
2022-07-30T01:59:16.596Z,100743.73
2022-07-30T02:09:27.032Z,100739.75
2022-07-30T02:19:36.992Z,100733.70
2022-07-30T02:29:46.333Z,100712.08
2022-07-30T02:39:51.836Z,100703.80
2022-07-30T02:49:55.419Z,100695.45
2022-07-30T02:59:59.370Z,100690.31
2022-07-30T03:10:03.025Z,100664.53
2022-07-30T03:20:09.997Z,100657.92
2022-07-30T03:30:12.785Z,100649.04
2022-07-30T03:40:16.058Z,100654.98
2022-07-30T03:50:17.998Z,100675.88
2022-07-30T04:00:21.356Z,100688.00
2022-07-30T04:10:25.332Z,100682.17
2022-07-30T04:20:41.274Z,100678.24
2022-07-30T04:30:43.437Z,100670.36
2022-07-30T04:40:46.038Z,100661.83
2022-07-30T04:50:50.257Z,100665.08
2022-07-30T05:00:55.508Z,100669.30
2022-07-30T05:11:01.734Z,100672.02
2022-07-30T05:21:04.504Z,100664.55
2022-07-30T05:31:12.478Z,100671.83
2022-07-30T05:41:19.055Z,100668.93
2022-07-30T05:51:47.605Z,100657.19
2022-07-30T06:01:53.178Z,100662.13
2022-07-30T06:12:00.156Z,100664.05
2022-07-30T06:22:06.698Z,100666.02
2022-07-30T06:32:14.006Z,100660.48
2022-07-30T06:42:16.265Z,100644.07
2022-07-30T06:52:38.044Z,100627.78
2022-07-30T07:02:42.727Z,100613.02
2022-07-30T07:12:47.570Z,100607.04
2022-07-30T07:22:52.057Z,100604.58
2022-07-30T07:32:55.395Z,100601.89
2022-07-30T07:42:58.795Z,100597.05
2022-07-30T07:53:01.304Z,100590.02
2022-07-30T08:03:03.719Z,100579.94
2022-07-30T08:13:06.322Z,100578.61
2022-07-30T08:23:28.265Z,100575.05
2022-07-30T08:33:30.303Z,100572.92
2022-07-30T08:43:35.945Z,100571.88
2022-07-30T08:53:39.194Z,100559.48
2022-07-30T09:03:44.168Z,100556.09
2022-07-30T09:13:47.205Z,100565.55
2022-07-30T09:24:03.773Z,100577.50
2022-07-30T09:34:40.157Z,100578.47
2022-07-30T09:44:42.342Z,100581.31
2022-07-30T09:54:52.896Z,100584.09
2022-07-30T10:05:14.403Z,100585.75
2022-07-30T10:15:20.768Z,100577.52
2022-07-30T10:25:28.107Z,100575.27
2022-07-30T10:35:49.616Z,100574.91
2022-07-30T10:46:36.634Z,100578.39
2022-07-30T10:56:38.839Z,100563.96
2022-07-30T11:06:40.913Z,100533.79
2022-07-30T11:16:58.639Z,100520.31
2022-07-30T11:27:01.875Z,100515.41
2022-07-30T11:37:18.336Z,100510.95
2022-07-30T11:47:28.296Z,100507.63
2022-07-30T11:57:43.858Z,100502.02
2022-07-30T12:07:46.030Z,100501.33
2022-07-30T12:17:51.370Z,100499.27
2022-07-30T12:27:59.505Z,100500.32
2022-07-30T12:38:07.148Z,100508.23
2022-07-30T12:48:12.859Z,100514.17
2022-07-30T12:58:17.676Z,100508.63
2022-07-30T13:08:20.014Z,100475.31
2022-07-30T13:18:24.279Z,100455.55
2022-07-30T13:28:26.555Z,100440.70
2022-07-30T13:38:28.993Z,100426.23
2022-07-30T13:48:32.632Z,100415.26
2022-07-30T13:58:36.217Z,100401.81
2022-07-30T14:08:39.182Z,100399.11
2022-07-30T14:18:42.829Z,100386.23
2022-07-30T14:28:44.861Z,100369.41
2022-07-30T14:38:46.817Z,100352.45
2022-07-30T14:48:50.141Z,100345.73
2022-07-30T14:58:53.441Z,100340.85
2022-07-30T15:08:55.630Z,100327.48
2022-07-30T15:18:59.010Z,100326.15
2022-07-30T15:29:01.042Z,100316.91
2022-07-30T15:39:02.867Z,100303.92
2022-07-30T15:49:05.111Z,100291.70
2022-07-30T15:59:07.409Z,100283.29
2022-07-30T16:09:09.497Z,100276.33
2022-07-30T16:19:12.274Z,100279.40
2022-07-30T16:29:14.409Z,100275.63
2022-07-30T16:39:16.754Z,100262.25
2022-07-30T16:49:19.689Z,100250.29
2022-07-30T16:59:22.657Z,100239.95
2022-07-30T17:09:24.873Z,100229.73
2022-07-30T17:19:27.295Z,100223.52
2022-07-30T17:29:29.876Z,100218.19
2022-07-30T17:40:26.335Z,100214.39
2022-07-30T17:49:55.136Z,100211.00
2022-07-30T17:59:57.111Z,100210.23
2022-07-30T18:09:59.439Z,100204.23
2022-07-30T18:20:01.542Z,100189.25
2022-07-30T18:30:04.341Z,100177.02
2022-07-30T18:40:07.668Z,100174.46
2022-07-30T18:50:11.726Z,100170.11
2022-07-30T19:00:34.342Z,100164.61
2022-07-30T19:10:37.588Z,100158.86
2022-07-30T19:20:39.750Z,100159.98
2022-07-30T19:30:41.856Z,100161.33
2022-07-30T19:40:43.962Z,100149.94
2022-07-30T19:50:46.060Z,100166.79
2022-07-30T20:00:49.772Z,100213.44
2022-07-30T20:10:52.155Z,100184.52
2022-07-30T20:20:55.120Z,100219.53
2022-07-30T20:31:00.629Z,100196.56
2022-07-30T20:41:03.687Z,100178.54
2022-07-30T20:51:13.259Z,100163.81
2022-07-30T21:01:17.521Z,100145.34
2022-07-30T21:11:20.217Z,100130.11
2022-07-30T21:21:28.688Z,100123.77
2022-07-30T21:32:01.963Z,100117.77
2022-07-30T21:42:03.812Z,100109.60
2022-07-30T21:52:08.671Z,100108.27
2022-07-30T22:02:15.886Z,100112.39
2022-07-30T22:12:33.077Z,100102.48
2022-07-30T22:22:37.732Z,100083.17
2022-07-30T22:32:40.263Z,100079.69
2022-07-30T22:42:49.525Z,100072.31
2022-07-30T22:53:01.320Z,100059.19
2022-07-30T23:03:14.816Z,100045.51
2022-07-30T23:13:18.931Z,100041.95
2022-07-30T23:23:20.864Z,100029.48
2022-07-30T23:33:22.768Z,100010.29
2022-07-30T23:43:24.643Z,99995.04
2022-07-30T23:53:26.785Z,99982.09
